createdAt,value
2024-03-28T00:00:27.577Z,6.64
2024-03-28T00:02:55.134Z,6.65
2024-03-28T00:05:22.465Z,6.67
2024-03-28T00:07:50.040Z,6.70
2024-03-28T00:10:17.367Z,6.72
2024-03-28T00:12:44.736Z,6.81
2024-03-28T00:15:13.043Z,6.88
2024-03-28T00:17:41.335Z,6.89
2024-03-28T00:20:08.734Z,6.90
2024-03-28T00:22:36.064Z,6.91
2024-03-28T00:25:03.916Z,6.92
2024-03-28T00:27:31.236Z,6.92
2024-03-28T00:29:58.704Z,6.92
2024-03-28T00:32:26.185Z,6.91
2024-03-28T00:34:54.857Z,6.91
2024-03-28T00:37:23.130Z,6.90
2024-03-28T00:39:50.918Z,6.90
2024-03-28T00:42:18.574Z,6.90
2024-03-28T00:44:46.037Z,6.88
2024-03-28T00:47:13.468Z,6.86
2024-03-28T00:49:40.798Z,6.85
2024-03-28T00:52:09.651Z,6.84
2024-03-28T00:54:36.950Z,6.84
2024-03-28T00:57:04.638Z,6.83
2024-03-28T00:59:31.953Z,6.80
2024-03-28T01:01:59.262Z,6.81
2024-03-28T01:04:26.610Z,6.80
2024-03-28T01:06:54.393Z,6.80
2024-03-28T01:09:22.478Z,6.86
2024-03-28T01:11:49.845Z,6.94
2024-03-28T01:14:17.144Z,6.97
2024-03-28T01:16:44.475Z,6.98
2024-03-28T01:19:11.848Z,6.99
2024-03-28T01:21:39.155Z,6.99
2024-03-28T01:24:06.600Z,6.99
2024-03-28T01:26:33.947Z,7.00
2024-03-28T01:29:01.387Z,7.01
2024-03-28T01:31:28.720Z,7.01
2024-03-28T01:33:56.031Z,7.01
2024-03-28T01:36:23.584Z,6.99
2024-03-28T01:38:50.909Z,6.97
2024-03-28T01:41:19.334Z,6.95
2024-03-28T01:43:46.651Z,6.95
2024-03-28T01:48:47.517Z,6.93
2024-03-28T01:51:14.860Z,6.92
2024-03-28T01:53:42.219Z,6.91
2024-03-28T01:56:10.527Z,6.91
2024-03-28T01:58:37.869Z,6.92
2024-03-28T02:01:05.192Z,6.92
2024-03-28T02:03:33.738Z,6.91
2024-03-28T02:06:01.066Z,6.91
2024-03-28T02:08:28.533Z,6.92
2024-03-28T02:10:56.657Z,6.92
2024-03-28T02:13:24.445Z,6.92
2024-03-28T02:15:52.240Z,6.91
2024-03-28T02:18:23.560Z,6.91
2024-03-28T02:20:50.921Z,6.92
2024-03-28T02:23:19.729Z,6.91
2024-03-28T02:25:49.846Z,6.89
2024-03-28T02:28:17.196Z,6.89
2024-03-28T02:30:45.287Z,6.90
2024-03-28T02:33:12.625Z,6.98
2024-03-28T02:35:39.992Z,7.03
2024-03-28T02:38:07.350Z,7.05
2024-03-28T02:40:35.135Z,7.07
2024-03-28T02:43:02.459Z,7.08
2024-03-28T02:45:29.797Z,7.09
2024-03-28T02:47:57.183Z,7.09
2024-03-28T02:50:24.729Z,7.10
2024-03-28T02:52:52.304Z,7.11
2024-03-28T02:55:19.645Z,7.09
2024-03-28T02:57:47.002Z,7.07
2024-03-28T03:00:15.090Z,7.06
2024-03-28T03:02:42.455Z,7.05
2024-03-28T03:05:09.885Z,7.04
2024-03-28T03:07:37.773Z,7.02
2024-03-28T03:10:05.817Z,7.01
2024-03-28T03:12:33.399Z,7.00
2024-03-28T03:15:00.839Z,6.99
2024-03-28T03:17:28.212Z,6.99
2024-03-28T03:20:00.130Z,6.99
2024-03-28T03:22:29.581Z,6.98
2024-03-28T03:25:00.216Z,6.98
2024-03-28T03:27:34.045Z,6.98
2024-03-28T03:30:20.343Z,6.97
2024-03-28T03:33:07.141Z,6.96
2024-03-28T03:35:34.483Z,6.95
2024-03-28T03:38:02.049Z,6.96
2024-03-28T03:40:29.373Z,6.96
2024-03-28T03:42:56.774Z,6.98
2024-03-28T03:45:24.439Z,6.97
2024-03-28T03:47:51.869Z,6.97
2024-03-28T03:50:19.263Z,6.97
2024-03-28T03:52:46.612Z,6.99
2024-03-28T03:55:14.015Z,6.99
2024-03-28T03:57:41.511Z,6.99
2024-03-28T04:00:11.131Z,6.99
2024-03-28T04:02:38.798Z,6.98
2024-03-28T04:05:07.986Z,6.97
2024-03-28T04:07:35.960Z,6.97
2024-03-28T04:10:03.430Z,6.97
2024-03-28T04:12:30.757Z,6.97
2024-03-28T04:14:58.073Z,6.97
2024-03-28T04:17:25.500Z,6.98
2024-03-28T04:19:53.059Z,6.99
2024-03-28T04:22:20.409Z,7.00
2024-03-28T04:24:47.770Z,7.01
2024-03-28T04:27:15.827Z,7.01
2024-03-28T04:29:52.124Z,7.02
2024-03-28T04:32:23.754Z,7.02
2024-03-28T04:34:51.218Z,7.02
2024-03-28T04:37:18.569Z,7.01
2024-03-28T04:39:46.546Z,7.02
2024-03-28T04:42:14.100Z,7.04
2024-03-28T04:44:42.291Z,7.04
2024-03-28T04:47:09.609Z,7.07
2024-03-28T04:49:37.171Z,7.08
2024-03-28T04:52:05.961Z,7.09
2024-03-28T04:54:33.267Z,7.11
2024-03-28T04:57:01.860Z,7.14
2024-03-28T04:59:29.195Z,7.17
2024-03-28T05:01:56.687Z,7.20
2024-03-28T05:04:24.267Z,7.22
2024-03-28T05:06:51.663Z,7.25
2024-03-28T05:09:19.527Z,7.27
2024-03-28T05:11:47.826Z,7.30
2024-03-28T05:14:15.681Z,7.34
2024-03-28T05:16:45.790Z,7.37
2024-03-28T05:19:13.646Z,7.42
2024-03-28T05:21:40.938Z,7.48
2024-03-28T05:24:08.313Z,7.52
2024-03-28T05:26:36.253Z,7.55
2024-03-28T05:29:03.816Z,7.58
2024-03-28T05:31:32.647Z,7.62
2024-03-28T05:34:00.396Z,7.66
2024-03-28T05:36:27.929Z,7.68
2024-03-28T05:38:55.292Z,7.70
2024-03-28T05:41:22.667Z,7.73
2024-03-28T05:43:50.001Z,7.76
2024-03-28T05:46:17.367Z,7.79
2024-03-28T05:48:44.743Z,7.82
2024-03-28T05:51:12.098Z,7.88
2024-03-28T05:53:39.440Z,7.92
2024-03-28T05:56:07.145Z,7.98
2024-03-28T05:58:34.551Z,8.06
2024-03-28T06:01:02.229Z,8.14
2024-03-28T06:03:29.566Z,8.22
2024-03-28T06:05:56.900Z,8.30
2024-03-28T06:08:24.527Z,8.37
2024-03-28T06:10:52.073Z,8.42
2024-03-28T06:13:19.507Z,8.47
2024-03-28T06:15:47.166Z,8.52
2024-03-28T06:18:14.762Z,8.60
2024-03-28T06:20:42.498Z,8.68
2024-03-28T06:23:09.872Z,8.76
2024-03-28T06:25:40.647Z,8.82
2024-03-28T06:28:09.818Z,8.90
2024-03-28T06:30:41.562Z,8.97
2024-03-28T06:33:08.878Z,9.06
2024-03-28T06:35:36.407Z,9.14
2024-03-28T06:38:04.570Z,9.23
2024-03-28T06:40:31.931Z,9.33
2024-03-28T06:43:00.433Z,9.44
2024-03-28T06:45:27.881Z,9.53
2024-03-28T06:47:55.208Z,9.60
2024-03-28T06:50:23.200Z,9.68
2024-03-28T06:52:52.006Z,9.75
2024-03-28T06:55:20.571Z,9.81
2024-03-28T06:57:48.001Z,9.92
2024-03-28T07:00:16.126Z,10.06
2024-03-28T07:02:43.482Z,10.19
2024-03-28T07:05:10.922Z,10.31
2024-03-28T07:07:38.538Z,10.41
2024-03-28T07:10:09.269Z,10.52
2024-03-28T07:12:37.111Z,10.61
2024-03-28T07:15:05.693Z,10.69
2024-03-28T07:17:33.063Z,10.76
2024-03-28T07:20:00.431Z,10.87
2024-03-28T07:22:27.922Z,11.00
2024-03-28T07:24:55.327Z,11.10
2024-03-28T07:27:26.211Z,11.16
2024-03-28T07:29:53.553Z,11.19
2024-03-28T07:32:21.699Z,11.18
2024-03-28T07:34:49.304Z,11.20
2024-03-28T07:37:16.667Z,11.27
2024-03-28T07:39:44.344Z,11.34
2024-03-28T07:42:11.767Z,11.38
2024-03-28T07:44:39.239Z,11.40
2024-03-28T07:49:36.526Z,11.53
2024-03-28T07:52:04.274Z,11.64
2024-03-28T07:54:34.057Z,11.77
2024-03-28T07:57:03.196Z,11.89
2024-03-28T07:59:30.774Z,12.02
2024-03-28T08:01:58.843Z,12.18
2024-03-28T08:04:26.397Z,12.37
2024-03-28T08:06:53.861Z,12.58
2024-03-28T08:09:21.832Z,12.81
2024-03-28T08:11:49.189Z,12.99
2024-03-28T08:14:16.570Z,13.08
2024-03-28T08:16:44.018Z,13.13
2024-03-28T08:19:11.865Z,13.20
2024-03-28T08:21:39.840Z,13.30
2024-03-28T08:24:07.935Z,13.39
2024-03-28T08:26:36.178Z,13.50
2024-03-28T08:29:04.220Z,13.53
2024-03-28T08:31:31.683Z,13.46
2024-03-28T08:33:59.153Z,13.35
2024-03-28T08:36:26.540Z,13.31
2024-03-28T08:38:56.139Z,13.29
2024-03-28T08:41:23.508Z,13.34
2024-03-28T08:43:51.646Z,13.41
2024-03-28T08:46:19.062Z,13.47
2024-03-28T08:48:47.768Z,13.47
2024-03-28T08:51:18.156Z,13.50
2024-03-28T08:53:45.567Z,13.63
2024-03-28T08:56:14.826Z,13.78
2024-03-28T08:58:42.226Z,13.91
2024-03-28T09:01:09.675Z,14.12
2024-03-28T09:03:37.068Z,14.28
2024-03-28T09:06:10.961Z,14.49
2024-03-28T09:08:38.347Z,14.68
2024-03-28T09:11:10.198Z,14.84
2024-03-28T09:13:37.621Z,14.93
2024-03-28T09:16:07.917Z,14.74
2024-03-28T09:18:35.587Z,15.01
2024-03-28T09:21:09.302Z,15.13
2024-03-28T09:23:36.706Z,15.36
2024-03-28T09:26:04.413Z,15.60
2024-03-28T09:28:32.551Z,15.82
2024-03-28T09:31:01.641Z,15.95
2024-03-28T09:33:29.895Z,16.07
2024-03-28T09:35:57.299Z,16.21
2024-03-28T09:38:25.544Z,16.30
2024-03-28T09:40:53.327Z,16.36
2024-03-28T09:43:20.889Z,16.47
2024-03-28T09:45:49.129Z,16.60
2024-03-28T09:48:16.807Z,16.67
2024-03-28T09:50:44.358Z,16.73
2024-03-28T09:53:12.216Z,16.80
2024-03-28T09:55:39.596Z,16.92
2024-03-28T09:58:07.373Z,17.03
2024-03-28T10:00:34.819Z,17.12
2024-03-28T10:03:15.275Z,17.26
2024-03-28T10:05:42.693Z,17.42
2024-03-28T10:08:10.153Z,17.53
2024-03-28T10:10:38.623Z,17.61
2024-03-28T10:13:08.385Z,17.70
2024-03-28T10:15:36.493Z,17.82
2024-03-28T10:18:06.815Z,17.92
2024-03-28T10:20:36.088Z,18.00
2024-03-28T10:23:03.623Z,18.06
2024-03-28T10:25:31.028Z,18.17
2024-03-28T10:27:58.621Z,18.28
2024-03-28T10:30:26.072Z,18.49
2024-03-28T10:33:05.369Z,18.72
2024-03-28T10:35:32.996Z,18.89
2024-03-28T10:38:07.994Z,18.99
2024-03-28T10:40:38.950Z,19.10
2024-03-28T10:43:11.118Z,19.11
2024-03-28T10:45:40.157Z,19.06
2024-03-28T10:48:12.154Z,19.03
2024-03-28T10:51:03.698Z,19.01
2024-03-28T10:53:55.106Z,18.96
2024-03-28T10:56:23.175Z,18.94
2024-03-28T10:58:50.641Z,18.99
2024-03-28T11:01:18.706Z,19.05
2024-03-28T11:03:46.096Z,19.16
2024-03-28T11:06:13.521Z,19.29
2024-03-28T11:08:41.789Z,19.30
2024-03-28T11:11:09.852Z,19.18
2024-03-28T11:13:37.298Z,19.09
2024-03-28T11:16:06.167Z,19.15
2024-03-28T11:18:33.815Z,19.18
2024-03-28T11:21:01.255Z,19.10
2024-03-28T11:23:28.718Z,18.99
2024-03-28T11:26:06.371Z,18.90
2024-03-28T11:28:33.990Z,18.86
2024-03-28T11:31:01.911Z,18.82
2024-03-28T11:33:30.980Z,18.74
2024-03-28T11:36:03.125Z,18.67
2024-03-28T11:38:30.668Z,18.60
2024-03-28T11:40:58.357Z,18.57
2024-03-28T11:43:25.868Z,18.51
2024-03-28T11:45:54.878Z,18.40
2024-03-28T11:48:23.259Z,18.25
2024-03-28T11:50:51.239Z,18.22
2024-03-28T11:53:18.986Z,18.10
2024-03-28T11:55:47.724Z,17.98
2024-03-28T11:58:15.088Z,17.92
2024-03-28T12:00:42.930Z,17.88
2024-03-28T12:03:10.663Z,17.81
2024-03-28T12:05:40.757Z,17.70
2024-03-28T12:08:08.860Z,17.60
2024-03-28T12:10:39.470Z,17.53
2024-03-28T12:13:10.061Z,17.49
2024-03-28T12:15:38.493Z,17.49
2024-03-28T12:18:06.693Z,17.60
2024-03-28T12:20:34.139Z,17.81
2024-03-28T12:23:06.013Z,18.06
2024-03-28T12:25:33.511Z,18.42
2024-03-28T12:28:01.982Z,18.77
2024-03-28T12:30:32.307Z,19.08
2024-03-28T12:33:04.727Z,19.29
2024-03-28T12:35:33.555Z,19.43
2024-03-28T12:38:02.321Z,19.43
2024-03-28T12:40:29.836Z,19.25
2024-03-28T12:42:58.064Z,19.10
2024-03-28T12:45:28.683Z,18.90
2024-03-28T12:47:56.138Z,18.75
2024-03-28T12:50:24.855Z,18.68
2024-03-28T12:52:53.207Z,18.62
2024-03-28T12:55:23.824Z,18.58
2024-03-28T12:57:52.416Z,18.56
2024-03-28T13:00:19.883Z,18.48
2024-03-28T13:02:47.459Z,18.33
2024-03-28T13:05:14.930Z,18.22
2024-03-28T13:07:42.380Z,18.12
2024-03-28T13:10:10.791Z,18.04
2024-03-28T13:12:38.307Z,17.96
2024-03-28T13:15:07.299Z,17.88
2024-03-28T13:17:34.714Z,17.84
2024-03-28T13:20:06.147Z,17.78
2024-03-28T13:22:33.544Z,17.75
2024-03-28T13:25:01.064Z,17.72
2024-03-28T13:27:43.663Z,17.68
2024-03-28T13:30:13.672Z,17.59
2024-03-28T13:32:43.007Z,17.47
2024-03-28T13:35:10.509Z,17.36
2024-03-28T13:37:37.913Z,17.30
2024-03-28T13:40:06.150Z,17.27
2024-03-28T13:42:33.824Z,17.23
2024-03-28T13:45:01.501Z,17.19
2024-03-28T13:47:29.090Z,17.09
2024-03-28T13:49:59.262Z,16.96
2024-03-28T13:52:27.166Z,16.84
2024-03-28T13:54:54.581Z,16.74
2024-03-28T13:57:21.984Z,16.64
2024-03-28T13:59:49.374Z,16.59
2024-03-28T14:02:16.776Z,16.58
2024-03-28T14:04:44.203Z,16.55
2024-03-28T14:07:11.847Z,16.51
2024-03-28T14:09:39.260Z,16.47
2024-03-28T14:12:07.308Z,16.42
2024-03-28T14:14:40.541Z,16.39
2024-03-28T14:17:08.003Z,16.38
2024-03-28T14:19:35.398Z,16.39
2024-03-28T14:22:03.760Z,16.42
2024-03-28T14:24:31.134Z,16.47
2024-03-28T14:26:59.806Z,16.56
2024-03-28T14:29:27.342Z,16.65
2024-03-28T14:31:54.716Z,16.71
2024-03-28T14:34:22.259Z,16.76
2024-03-28T14:36:49.647Z,16.78
2024-03-28T14:39:17.486Z,16.85
2024-03-28T14:41:44.933Z,16.96
2024-03-28T14:44:12.309Z,17.06
2024-03-28T14:46:39.757Z,17.11
2024-03-28T14:49:07.123Z,17.05
2024-03-28T14:51:34.502Z,17.01
2024-03-28T14:54:01.933Z,17.00
2024-03-28T14:56:29.321Z,16.95
2024-03-28T14:58:56.746Z,16.87
2024-03-28T15:01:24.123Z,16.78
2024-03-28T15:03:52.987Z,16.72
2024-03-28T15:06:20.355Z,16.67
2024-03-28T15:08:47.746Z,16.61
2024-03-28T15:11:15.196Z,16.57
2024-03-28T15:13:42.575Z,16.51
2024-03-28T15:16:13.560Z,16.48
2024-03-28T15:18:41.091Z,16.42
2024-03-28T15:21:10.012Z,16.33
2024-03-28T15:23:37.398Z,16.25
2024-03-28T15:26:05.137Z,16.16
2024-03-28T15:28:33.422Z,16.08
2024-03-28T15:31:01.946Z,15.99
2024-03-28T15:33:30.799Z,15.85
2024-03-28T15:35:58.325Z,15.75
2024-03-28T15:38:25.708Z,15.63
2024-03-28T15:40:56.877Z,15.52
2024-03-28T15:43:24.289Z,15.44
2024-03-28T15:45:51.691Z,15.38
2024-03-28T15:48:19.308Z,15.33
2024-03-28T15:50:47.007Z,15.28
2024-03-28T15:53:14.543Z,15.23
2024-03-28T15:55:41.941Z,15.16
2024-03-28T15:58:09.330Z,15.10
2024-03-28T16:00:36.790Z,15.05
2024-03-28T16:03:07.474Z,14.98
2024-03-28T16:05:34.874Z,14.92
2024-03-28T16:08:07.766Z,14.88
2024-03-28T16:10:35.559Z,14.82
2024-03-28T16:13:03.117Z,14.77
2024-03-28T16:15:30.536Z,14.73
2024-03-28T16:17:58.035Z,14.67
2024-03-28T16:20:25.470Z,14.61
2024-03-28T16:22:54.095Z,14.55
2024-03-28T16:25:22.484Z,14.49
2024-03-28T16:27:49.936Z,14.43
2024-03-28T16:30:17.870Z,14.38
2024-03-28T16:32:46.739Z,14.32
2024-03-28T16:35:15.111Z,14.28
2024-03-28T16:37:42.722Z,14.24
2024-03-28T16:40:10.773Z,14.21
2024-03-28T16:42:38.636Z,14.19
2024-03-28T16:45:08.057Z,14.17
2024-03-28T16:47:35.473Z,14.15
2024-03-28T16:50:03.072Z,14.12
2024-03-28T16:52:30.536Z,14.09
2024-03-28T16:54:57.975Z,14.08
2024-03-28T16:57:25.424Z,14.07
2024-03-28T16:59:53.422Z,14.07
2024-03-28T17:02:20.885Z,14.06
2024-03-28T17:04:48.315Z,14.05
2024-03-28T17:07:15.708Z,14.05
2024-03-28T17:09:44.058Z,14.03
2024-03-28T17:12:11.437Z,14.02
2024-03-28T17:14:39.993Z,14.00
2024-03-28T17:17:07.421Z,13.98
2024-03-28T17:19:34.909Z,13.96
2024-03-28T17:22:03.976Z,13.94
2024-03-28T17:24:31.802Z,13.91
2024-03-28T17:26:59.200Z,13.89
2024-03-28T17:29:26.592Z,13.89
2024-03-28T17:31:53.953Z,13.88
2024-03-28T17:34:21.922Z,13.86
2024-03-28T17:36:49.780Z,13.85
2024-03-28T17:39:18.479Z,13.85
2024-03-28T17:41:48.362Z,13.85
2024-03-28T17:44:15.738Z,13.85
2024-03-28T17:46:43.204Z,13.83
2024-03-28T17:49:12.672Z,13.81
2024-03-28T17:51:40.088Z,13.85
2024-03-28T17:54:08.733Z,13.91
2024-03-28T17:56:36.492Z,13.94
2024-03-28T17:59:03.888Z,13.95
2024-03-28T18:01:33.636Z,13.95
2024-03-28T18:04:02.700Z,13.95
2024-03-28T18:06:30.109Z,13.93
2024-03-28T18:08:57.480Z,13.92
2024-03-28T18:11:26.393Z,13.92
2024-03-28T18:13:54.132Z,13.91
2024-03-28T18:16:21.828Z,13.90
2024-03-28T18:18:49.566Z,13.88
2024-03-28T18:21:17.230Z,13.85
2024-03-28T18:23:44.685Z,13.82
2024-03-28T18:26:12.431Z,13.80
2024-03-28T18:28:39.986Z,13.78
2024-03-28T18:31:07.710Z,13.75
2024-03-28T18:33:35.267Z,13.75
2024-03-28T18:36:05.396Z,13.74
2024-03-28T18:38:32.829Z,13.73
2024-03-28T18:41:11.039Z,13.71
2024-03-28T18:43:42.466Z,13.69
2024-03-28T18:46:10.035Z,13.66
2024-03-28T18:48:37.583Z,13.63
2024-03-28T18:51:08.337Z,13.66
2024-03-28T18:53:37.303Z,13.72
2024-03-28T18:56:04.998Z,13.72
2024-03-28T18:58:32.414Z,13.70
2024-03-28T19:01:02.152Z,13.67
2024-03-28T19:03:29.610Z,13.63
2024-03-28T19:05:57.039Z,13.59
2024-03-28T19:08:24.450Z,13.54
2024-03-28T19:10:52.429Z,13.50
2024-03-28T19:13:20.246Z,13.48
2024-03-28T19:15:49.985Z,13.49
2024-03-28T19:18:22.441Z,13.46
2024-03-28T19:20:50.415Z,13.37
2024-03-28T19:23:17.840Z,13.30
2024-03-28T19:25:46.004Z,13.25
2024-03-28T19:28:14.159Z,13.19
2024-03-28T19:30:43.172Z,13.07
2024-03-28T19:33:11.612Z,12.89
2024-03-28T19:35:39.135Z,12.78
2024-03-28T19:38:11.664Z,12.66
2024-03-28T19:40:39.065Z,12.45
2024-03-28T19:43:06.485Z,12.28
2024-03-28T19:45:33.872Z,12.16
2024-03-28T19:48:01.265Z,12.08
2024-03-28T19:50:29.025Z,12.00
2024-03-28T19:52:56.397Z,11.90
2024-03-28T19:55:23.797Z,11.86
2024-03-28T19:57:51.180Z,11.85
2024-03-28T20:00:18.646Z,11.82
2024-03-28T20:02:46.304Z,11.75
2024-03-28T20:07:16.777Z,11.64
2024-03-28T20:09:46.155Z,11.61
2024-03-28T20:12:13.579Z,11.55
2024-03-28T20:14:41.055Z,11.47
2024-03-28T20:17:09.991Z,11.40
2024-03-28T20:19:37.391Z,11.41
2024-03-28T20:22:05.122Z,11.44
2024-03-28T20:24:32.518Z,11.43
2024-03-28T20:27:00.402Z,11.40
2024-03-28T20:29:27.813Z,11.38
2024-03-28T20:31:56.539Z,11.33
2024-03-28T20:34:24.348Z,11.31
2024-03-28T20:36:51.995Z,11.28
2024-03-28T20:39:19.392Z,11.21
2024-03-28T20:41:49.093Z,11.13
2024-03-28T20:44:18.852Z,11.05
2024-03-28T20:46:49.432Z,10.95
2024-03-28T20:49:17.176Z,10.87
2024-03-28T20:51:45.017Z,10.87
2024-03-28T20:54:15.423Z,10.85
2024-03-28T20:56:42.801Z,10.76
2024-03-28T20:59:10.189Z,10.65
2024-03-28T21:01:37.578Z,10.54
2024-03-28T21:04:05.076Z,10.43
2024-03-28T21:06:51.128Z,10.39
2024-03-28T21:09:37.300Z,10.38
2024-03-28T21:12:05.875Z,10.32
2024-03-28T21:14:33.550Z,10.24
2024-03-28T21:17:00.932Z,10.17
2024-03-28T21:19:28.361Z,10.12
2024-03-28T21:21:56.816Z,10.12
2024-03-28T21:24:24.206Z,10.13
2024-03-28T21:26:56.243Z,10.10
2024-03-28T21:29:24.830Z,10.08
2024-03-28T21:31:53.050Z,10.07
2024-03-28T21:34:21.000Z,9.99
2024-03-28T21:36:48.953Z,9.88
2024-03-28T21:39:16.838Z,9.87
2024-03-28T21:41:44.600Z,9.88
2024-03-28T21:44:11.991Z,9.90
2024-03-28T21:46:39.346Z,9.87
2024-03-28T21:49:06.755Z,9.82
2024-03-28T21:51:34.174Z,9.81
2024-03-28T21:54:03.426Z,9.81
2024-03-28T21:56:30.909Z,9.87
2024-03-28T21:58:58.789Z,9.92
2024-03-28T22:01:26.141Z,9.90
2024-03-28T22:03:53.621Z,9.86
2024-03-28T22:06:20.955Z,9.83
2024-03-28T22:08:50.238Z,9.79
2024-03-28T22:11:18.319Z,9.75
2024-03-28T22:13:48.583Z,9.71
2024-03-28T22:16:15.933Z,9.71
2024-03-28T22:18:43.268Z,9.72
2024-03-28T22:21:11.130Z,9.69
2024-03-28T22:23:38.584Z,9.57
2024-03-28T22:26:06.313Z,9.58
2024-03-28T22:28:33.797Z,9.54
2024-03-28T22:31:01.286Z,9.56
2024-03-28T22:33:28.733Z,9.50
2024-03-28T22:35:57.722Z,9.56
2024-03-28T22:38:25.162Z,9.50
2024-03-28T22:40:52.628Z,9.47
2024-03-28T22:43:22.801Z,9.43
2024-03-28T22:45:50.276Z,9.45
2024-03-28T22:48:17.906Z,9.45
2024-03-28T22:50:45.330Z,9.43
2024-03-28T22:53:12.733Z,9.41
2024-03-28T22:55:40.315Z,9.41
2024-03-28T22:58:07.847Z,9.43
2024-03-28T23:00:35.615Z,9.51
2024-03-28T23:03:02.909Z,9.58
2024-03-28T23:05:30.244Z,9.57
2024-03-28T23:07:57.602Z,9.57
2024-03-28T23:10:25.007Z,9.58
2024-03-28T23:12:52.337Z,9.62
2024-03-28T23:15:19.652Z,9.68
2024-03-28T23:17:46.983Z,9.67
2024-03-28T23:20:14.364Z,9.63
2024-03-28T23:22:42.032Z,9.59
2024-03-28T23:25:09.556Z,9.58
2024-03-28T23:27:37.132Z,9.63
2024-03-28T23:30:05.033Z,9.66
2024-03-28T23:32:34.304Z,9.64
2024-03-28T23:35:03.617Z,9.61
2024-03-28T23:37:31.388Z,9.60
2024-03-28T23:39:58.713Z,9.57
2024-03-28T23:42:26.461Z,9.62
2024-03-28T23:44:53.807Z,9.64
2024-03-28T23:47:21.147Z,9.62
2024-03-28T23:49:48.500Z,9.59
2024-03-28T23:52:16.173Z,9.56
2024-03-28T23:54:43.739Z,9.54
2024-03-28T23:57:11.256Z,9.58
2024-03-28T23:59:38.570Z,9.60
